createdAt,value
2019-02-22T00:00:41.586Z,7.20
2019-02-22T00:03:16.587Z,7.30
2019-02-22T00:05:50.070Z,7.30
2019-02-22T00:08:24.081Z,7.30
2019-02-22T00:10:58.593Z,7.30
2019-02-22T00:13:32.606Z,7.20
2019-02-22T00:16:05.588Z,7.20
2019-02-22T00:18:39.609Z,7.20
2019-02-22T00:21:13.612Z,7.20
2019-02-22T00:23:48.616Z,7.20
2019-02-22T00:26:22.613Z,7.20
2019-02-22T00:28:56.616Z,7.20
2019-02-22T00:31:32.222Z,7.30
2019-02-22T00:34:08.620Z,7.20
2019-02-22T00:36:44.202Z,7.30
2019-02-22T00:39:19.174Z,7.30
2019-02-22T00:41:53.614Z,7.30
2019-02-22T00:44:26.618Z,7.30
2019-02-22T00:46:59.611Z,7.30
2019-02-22T00:49:32.616Z,7.30
2019-02-22T00:52:05.520Z,7.30
2019-02-22T00:54:38.630Z,7.30
2019-02-22T00:57:12.619Z,7.30
2019-02-22T00:59:46.319Z,7.30
2019-02-22T01:02:20.619Z,7.30
2019-02-22T01:04:53.613Z,7.30
2019-02-22T01:07:27.615Z,7.30
2019-02-22T01:13:42.621Z,7.30
2019-02-22T01:19:57.101Z,7.40
2019-02-22T01:22:30.613Z,7.40
2019-02-22T01:25:05.120Z,7.30
2019-02-22T01:27:39.125Z,7.20
2019-02-22T01:30:12.613Z,6.90
2019-02-22T01:32:46.621Z,6.70
2019-02-22T01:35:20.621Z,6.60
2019-02-22T01:37:53.614Z,6.50
2019-02-22T01:40:27.619Z,6.50
2019-02-22T01:43:00.613Z,6.50
2019-02-22T01:45:34.625Z,6.70
2019-02-22T01:48:08.131Z,6.80
2019-02-22T01:50:41.616Z,6.70
2019-02-22T01:53:14.624Z,6.70
2019-02-22T01:55:48.616Z,6.70
2019-02-22T01:58:21.630Z,6.70
2019-02-22T02:00:55.617Z,6.70
2019-02-22T02:03:28.622Z,6.70
2019-02-22T02:06:02.617Z,6.70
2019-02-22T02:08:35.618Z,6.80
2019-02-22T02:11:10.135Z,6.80
2019-02-22T02:13:45.618Z,6.90
2019-02-22T02:16:20.391Z,6.90
2019-02-22T02:18:54.633Z,7.00
2019-02-22T02:21:28.642Z,7.00
2019-02-22T02:24:03.034Z,7.00
2019-02-22T02:26:38.620Z,6.90
2019-02-22T02:29:12.283Z,6.70
2019-02-22T02:31:45.617Z,6.50
2019-02-22T02:34:20.095Z,6.50
2019-02-22T02:36:54.619Z,6.50
2019-02-22T02:39:28.619Z,6.40
2019-02-22T02:42:02.125Z,6.40
2019-02-22T02:44:36.655Z,6.40
2019-02-22T02:47:09.622Z,6.50
2019-02-22T02:49:42.618Z,6.50
2019-02-22T02:52:16.321Z,6.50
2019-02-22T02:54:52.626Z,6.70
2019-02-22T02:57:28.238Z,6.70
2019-02-22T03:00:02.455Z,6.60
2019-02-22T03:02:36.044Z,6.70
2019-02-22T03:05:10.257Z,6.70
2019-02-22T03:07:44.888Z,6.90
2019-02-22T03:10:18.637Z,6.80
2019-02-22T03:12:52.634Z,6.90
2019-02-22T03:15:26.090Z,6.90
2019-02-22T03:18:00.631Z,7.00
2019-02-22T03:20:35.132Z,7.00
2019-02-22T03:23:08.625Z,7.00
2019-02-22T03:25:41.626Z,7.00
2019-02-22T03:28:15.631Z,7.00
2019-02-22T03:30:48.638Z,7.00
2019-02-22T03:33:22.315Z,7.00
2019-02-22T03:35:56.136Z,7.00
2019-02-22T03:38:30.332Z,7.00
2019-02-22T03:41:04.632Z,7.00
2019-02-22T03:47:07.259Z,7.00
2019-02-22T03:49:41.639Z,6.90
2019-02-22T03:52:39.229Z,6.90
2019-02-22T03:55:14.263Z,6.90
2019-02-22T03:57:48.273Z,7.00
2019-02-22T04:00:22.075Z,7.00
2019-02-22T04:02:56.641Z,6.90
2019-02-22T04:05:30.094Z,7.00
2019-02-22T04:08:07.132Z,7.00
2019-02-22T04:13:56.650Z,7.00
2019-02-22T04:16:29.656Z,7.00
2019-02-22T04:22:31.664Z,7.00
2019-02-22T04:25:06.259Z,7.00
2019-02-22T04:27:40.063Z,7.00
2019-02-22T04:30:14.282Z,7.00
2019-02-22T04:32:48.290Z,7.00
2019-02-22T04:35:21.659Z,7.00
2019-02-22T04:37:54.665Z,6.90
2019-02-22T04:40:28.269Z,6.90
2019-02-22T04:43:02.277Z,6.90
2019-02-22T04:45:35.660Z,7.00
2019-02-22T04:48:09.276Z,6.90
2019-02-22T04:50:43.285Z,6.90
2019-02-22T04:53:17.292Z,7.00
2019-02-22T04:55:51.663Z,7.00
2019-02-22T04:58:25.663Z,7.00
2019-02-22T05:01:00.141Z,7.00
2019-02-22T05:03:35.668Z,7.00
2019-02-22T05:06:09.673Z,7.00
2019-02-22T05:08:44.218Z,7.00
2019-02-22T05:11:19.252Z,7.00
2019-02-22T05:13:58.179Z,7.20
2019-02-22T05:16:33.748Z,7.20
2019-02-22T05:19:08.766Z,7.20
2019-02-22T05:21:44.521Z,7.20
2019-02-22T05:24:21.716Z,7.10
2019-02-22T05:26:56.225Z,7.20
2019-02-22T05:29:33.307Z,7.20
2019-02-22T05:32:09.555Z,7.00
2019-02-22T05:34:43.357Z,6.80
2019-02-22T05:37:17.983Z,6.50
2019-02-22T05:39:52.404Z,6.40
2019-02-22T05:42:28.541Z,6.50
2019-02-22T05:45:01.735Z,6.50
2019-02-22T05:47:35.459Z,6.40
2019-02-22T05:50:09.737Z,6.50
2019-02-22T05:52:43.735Z,6.60
2019-02-22T05:55:17.486Z,6.60
2019-02-22T05:57:51.491Z,6.60
2019-02-22T06:00:25.744Z,6.50
2019-02-22T06:02:59.743Z,6.50
2019-02-22T06:05:32.779Z,6.60
2019-02-22T06:11:48.408Z,6.60
2019-02-22T06:14:22.778Z,6.70
2019-02-22T06:16:56.332Z,6.70
2019-02-22T06:23:13.359Z,6.60
2019-02-22T06:29:30.407Z,6.80
2019-02-22T06:32:04.857Z,6.80
2019-02-22T06:34:40.259Z,6.90
2019-02-22T06:37:14.679Z,6.90
2019-02-22T06:43:21.475Z,6.90
2019-02-22T06:45:56.958Z,7.00
2019-02-22T06:48:31.982Z,7.00
2019-02-22T06:51:07.837Z,7.00
2019-02-22T06:53:41.609Z,7.00
2019-02-22T06:56:17.183Z,7.00
2019-02-22T06:58:51.676Z,7.00
2019-02-22T07:01:27.180Z,7.10
2019-02-22T07:04:01.746Z,7.10
2019-02-22T07:06:35.966Z,7.10
2019-02-22T07:09:10.784Z,7.10
2019-02-22T07:11:58.179Z,7.00
2019-02-22T07:14:33.184Z,6.90
2019-02-22T07:17:10.019Z,6.80
2019-02-22T07:19:46.691Z,6.70
2019-02-22T07:25:45.186Z,6.80
2019-02-22T07:28:18.690Z,6.90
2019-02-22T07:34:09.718Z,6.90
2019-02-22T07:36:45.983Z,7.00
2019-02-22T07:39:27.868Z,7.10
2019-02-22T07:42:02.180Z,7.10
2019-02-22T07:44:41.138Z,7.10
2019-02-22T07:47:16.968Z,7.20
2019-02-22T07:49:51.795Z,7.30
2019-02-22T07:52:25.808Z,7.10
2019-02-22T07:55:01.873Z,7.10
2019-02-22T07:57:35.667Z,7.20
2019-02-22T08:00:11.725Z,7.20
2019-02-22T08:02:47.043Z,7.30
2019-02-22T08:08:39.424Z,7.50
2019-02-22T08:11:14.056Z,7.50
2019-02-22T08:17:30.676Z,7.50
2019-02-22T08:23:48.122Z,7.60
2019-02-22T08:30:05.776Z,7.50
2019-02-22T08:32:42.213Z,7.60
2019-02-22T08:35:18.212Z,7.70
2019-02-22T08:37:52.716Z,7.70
2019-02-22T08:40:27.218Z,7.60
2019-02-22T08:43:03.231Z,7.50
2019-02-22T08:45:41.715Z,7.50
2019-02-22T08:48:17.225Z,7.50
2019-02-22T08:50:53.269Z,7.60
2019-02-22T08:56:56.992Z,7.70
2019-02-22T09:03:02.093Z,8.00
2019-02-22T09:09:08.688Z,8.30
2019-02-22T09:11:43.720Z,8.40
2019-02-22T09:14:19.298Z,8.50
2019-02-22T09:16:54.226Z,8.60
2019-02-22T09:19:29.441Z,8.70
2019-02-22T09:22:06.218Z,8.80
2019-02-22T09:24:42.224Z,8.80
2019-02-22T09:30:48.223Z,9.00
2019-02-22T09:36:27.227Z,9.00
2019-02-22T09:39:02.734Z,8.50
2019-02-22T09:41:38.994Z,8.10
2019-02-22T09:47:42.517Z,8.00
2019-02-22T09:53:36.260Z,8.00
2019-02-22T09:56:12.056Z,8.10
2019-02-22T09:58:47.096Z,8.20
2019-02-22T10:01:24.238Z,8.40
2019-02-22T10:04:04.745Z,8.50
2019-02-22T10:10:11.773Z,8.60
2019-02-22T10:12:47.243Z,8.70
2019-02-22T10:15:23.851Z,8.70
2019-02-22T10:17:58.679Z,8.80
2019-02-22T10:20:34.736Z,8.90
2019-02-22T10:23:03.630Z,9.00
2019-02-22T10:25:37.258Z,9.20
2019-02-22T10:28:17.774Z,9.30
2019-02-22T10:30:48.252Z,9.30
2019-02-22T10:36:45.100Z,9.50
2019-02-22T10:39:16.274Z,9.60
2019-02-22T10:41:51.873Z,9.70
2019-02-22T10:44:26.492Z,9.90
2019-02-22T10:47:02.765Z,10.00
2019-02-22T10:53:10.985Z,10.10
2019-02-22T10:59:14.710Z,10.20
2019-02-22T11:05:18.873Z,10.40
2019-02-22T11:07:57.563Z,10.40
2019-02-22T11:10:32.812Z,10.40
2019-02-22T11:13:07.281Z,10.40
2019-02-22T11:15:42.052Z,10.40
2019-02-22T11:21:45.288Z,10.60
2019-02-22T11:24:20.011Z,10.60
2019-02-22T11:26:53.298Z,10.60
2019-02-22T11:29:27.319Z,10.60
2019-02-22T11:32:01.296Z,10.60
2019-02-22T11:34:35.292Z,10.60
2019-02-22T11:37:08.295Z,10.40
2019-02-22T11:39:41.295Z,10.30
2019-02-22T11:42:15.808Z,10.40
2019-02-22T11:44:49.304Z,10.50
2019-02-22T11:47:22.799Z,10.40
2019-02-22T11:49:56.298Z,10.50
2019-02-22T11:52:30.314Z,10.40
2019-02-22T11:55:04.310Z,10.40
2019-02-22T11:57:37.423Z,10.50
2019-02-22T12:00:15.920Z,10.60
2019-02-22T12:02:49.928Z,10.60
2019-02-22T12:05:23.936Z,10.60
2019-02-22T12:11:27.319Z,10.50
2019-02-22T12:14:01.877Z,10.50
2019-02-22T12:16:35.323Z,10.50
2019-02-22T12:22:50.328Z,10.80
2019-02-22T12:25:25.915Z,11.00
2019-02-22T12:28:00.947Z,11.30
2019-02-22T12:30:37.829Z,11.50
2019-02-22T12:33:14.102Z,11.50
2019-02-22T12:39:29.892Z,11.40
2019-02-22T12:42:03.356Z,11.40
2019-02-22T12:44:37.329Z,11.40
2019-02-22T12:50:52.332Z,11.40
2019-02-22T12:53:25.884Z,11.40
2019-02-22T12:56:00.334Z,11.60
2019-02-22T12:58:34.341Z,11.60
2019-02-22T13:01:09.753Z,11.70
2019-02-22T13:03:43.338Z,11.80
2019-02-22T13:06:18.799Z,11.80
2019-02-22T13:08:52.808Z,11.40
2019-02-22T13:11:27.838Z,11.20
2019-02-22T13:14:03.078Z,11.30
2019-02-22T13:16:36.354Z,11.30
2019-02-22T13:19:10.362Z,11.30
2019-02-22T13:21:44.354Z,11.30
2019-02-22T13:24:17.428Z,11.50
2019-02-22T13:26:51.281Z,11.50
2019-02-22T13:29:24.354Z,11.50
2019-02-22T13:31:58.357Z,11.50
2019-02-22T13:34:31.360Z,11.50
2019-02-22T13:37:05.359Z,11.40
2019-02-22T13:39:41.126Z,11.50
2019-02-22T13:42:15.370Z,11.40
2019-02-22T13:44:50.785Z,11.30
2019-02-22T13:47:27.367Z,11.30
2019-02-22T13:50:01.932Z,11.30
2019-02-22T13:52:36.364Z,11.30
2019-02-22T13:55:10.369Z,11.40
2019-02-22T13:57:46.156Z,11.30
2019-02-22T14:00:22.468Z,11.40
2019-02-22T14:02:57.365Z,11.50
2019-02-22T14:05:33.721Z,11.50
2019-02-22T14:08:09.395Z,11.40
2019-02-22T14:10:45.834Z,11.60
2019-02-22T14:13:21.413Z,11.60
2019-02-22T14:15:57.371Z,11.70
2019-02-22T14:18:31.374Z,11.80
2019-02-22T14:21:05.383Z,11.90
2019-02-22T14:23:39.973Z,12.00
2019-02-22T14:26:16.031Z,12.00
2019-02-22T14:28:50.869Z,12.10
2019-02-22T14:31:26.371Z,12.20
2019-02-22T14:34:00.370Z,12.20
2019-02-22T14:36:34.495Z,12.00
2019-02-22T14:39:09.387Z,11.90
2019-02-22T14:41:45.002Z,11.80
2019-02-22T14:48:29.695Z,11.90
2019-02-22T14:51:06.981Z,11.90
2019-02-22T14:56:50.232Z,12.10
2019-02-22T15:02:54.384Z,12.00
2019-02-22T15:08:59.389Z,12.00
2019-02-22T15:11:34.389Z,12.00
2019-02-22T15:14:09.400Z,11.90
2019-02-22T15:17:02.023Z,11.90
2019-02-22T15:19:38.394Z,11.90
2019-02-22T15:22:14.341Z,11.90
2019-02-22T15:24:48.394Z,11.80
2019-02-22T15:30:52.354Z,11.70
2019-02-22T15:36:46.412Z,11.70
2019-02-22T15:39:20.447Z,11.60
2019-02-22T15:41:55.008Z,11.60
2019-02-22T15:44:29.028Z,11.50
2019-02-22T15:47:11.328Z,11.40
2019-02-22T15:49:39.291Z,11.30
2019-02-22T15:52:13.914Z,11.30
2019-02-22T15:54:48.412Z,11.30
2019-02-22T15:57:25.186Z,11.20
2019-02-22T15:59:59.837Z,11.20
2019-02-22T16:02:35.865Z,11.20
2019-02-22T16:05:13.999Z,11.20
2019-02-22T16:07:50.261Z,11.30
2019-02-22T16:10:27.434Z,11.20
2019-02-22T16:13:02.429Z,11.20
2019-02-22T16:15:36.451Z,11.20
2019-02-22T16:18:14.905Z,11.10
2019-02-22T16:20:52.429Z,11.00
2019-02-22T16:23:26.431Z,11.00
2019-02-22T16:26:00.001Z,10.90
2019-02-22T16:28:34.452Z,10.90
2019-02-22T16:31:08.839Z,10.90
2019-02-22T16:33:42.850Z,10.80
2019-02-22T16:36:18.431Z,10.80
2019-02-22T16:38:52.437Z,10.80
2019-02-22T16:45:11.444Z,10.80
2019-02-22T16:47:46.452Z,10.80
2019-02-22T16:50:21.046Z,10.80
2019-02-22T16:52:57.444Z,10.80
2019-02-22T16:55:32.142Z,10.80
2019-02-22T16:58:06.963Z,10.70
2019-02-22T17:00:41.443Z,10.70
2019-02-22T17:03:15.443Z,10.70
2019-02-22T17:05:50.456Z,10.70
2019-02-22T17:08:25.663Z,10.60
2019-02-22T17:11:03.449Z,10.60
2019-02-22T17:13:39.424Z,10.50
2019-02-22T17:16:16.922Z,10.50
2019-02-22T17:18:51.450Z,10.50
2019-02-22T17:21:27.464Z,10.50
2019-02-22T17:24:02.008Z,10.40
2019-02-22T17:26:36.457Z,10.40
2019-02-22T17:35:32.454Z,10.50
2019-02-22T17:38:06.454Z,10.50
2019-02-22T17:40:40.454Z,10.50
2019-02-22T17:43:16.055Z,10.50
2019-02-22T17:45:51.293Z,10.50
2019-02-22T17:48:24.893Z,10.50
2019-02-22T17:50:59.113Z,10.50
2019-02-22T17:53:32.919Z,10.40
2019-02-22T17:56:07.947Z,10.50
2019-02-22T17:58:42.458Z,10.40
2019-02-22T18:01:15.467Z,10.40
2019-02-22T18:03:49.464Z,10.30
2019-02-22T18:06:24.458Z,10.40
2019-02-22T18:08:57.469Z,10.40
2019-02-22T18:14:35.468Z,10.30
2019-02-22T18:20:50.903Z,10.20
2019-02-22T18:23:25.117Z,10.20
2019-02-22T18:25:59.469Z,10.10
2019-02-22T18:28:33.956Z,10.10
2019-02-22T18:31:08.992Z,10.10
2019-02-22T18:37:11.483Z,10.00
2019-02-22T18:39:45.482Z,10.00
2019-02-22T18:45:37.341Z,9.80
2019-02-22T18:48:11.481Z,9.80
2019-02-22T18:54:14.492Z,9.70
2019-02-22T19:00:16.488Z,9.60
2019-02-22T19:02:50.147Z,9.60
2019-02-22T19:05:23.951Z,9.50
2019-02-22T19:11:26.038Z,9.50
2019-02-22T19:14:00.045Z,9.30
2019-02-22T19:20:16.505Z,9.20
2019-02-22T19:26:19.495Z,9.10
2019-02-22T19:28:52.976Z,9.10
2019-02-22T19:31:27.502Z,9.10
2019-02-22T19:34:00.502Z,9.00
2019-02-22T19:36:34.496Z,9.00
2019-02-22T19:39:12.096Z,9.00
2019-02-22T19:41:47.507Z,9.00
2019-02-22T19:44:23.502Z,8.90
2019-02-22T19:46:57.509Z,8.90
2019-02-22T19:49:30.783Z,8.80
2019-02-22T19:52:04.503Z,8.70
2019-02-22T19:54:39.214Z,8.70
2019-02-22T19:57:12.500Z,8.60
2019-02-22T19:59:46.005Z,8.60
2019-02-22T20:02:19.508Z,8.60
2019-02-22T20:04:53.522Z,8.50
2019-02-22T20:07:28.501Z,8.50
2019-02-22T20:10:03.065Z,8.50
2019-02-22T20:16:22.504Z,8.40
2019-02-22T20:22:38.369Z,8.40
2019-02-22T20:25:12.379Z,8.40
2019-02-22T20:27:46.187Z,8.40
2019-02-22T20:30:23.263Z,8.30
2019-02-22T20:32:57.512Z,8.30
2019-02-22T20:38:59.977Z,8.20
2019-02-22T20:41:33.985Z,8.10
2019-02-22T20:47:49.521Z,8.10
2019-02-22T20:53:51.518Z,8.00
2019-02-22T20:56:25.523Z,7.90
2019-02-22T21:02:41.538Z,7.90
2019-02-22T21:08:46.040Z,7.80
2019-02-22T21:14:48.734Z,7.80
2019-02-22T21:17:22.951Z,7.80
2019-02-22T21:23:39.989Z,7.80
2019-02-22T21:26:15.029Z,7.70
2019-02-22T21:32:18.954Z,7.70
2019-02-22T21:37:57.534Z,7.70
2019-02-22T21:40:31.539Z,7.70
2019-02-22T21:43:05.539Z,7.80
2019-02-22T21:49:22.537Z,7.80
2019-02-22T21:55:41.011Z,7.90
2019-02-22T21:58:19.117Z,8.00
2019-02-22T22:00:57.028Z,7.90
2019-02-22T22:03:33.559Z,7.90
2019-02-22T22:09:48.542Z,7.80
2019-02-22T22:12:22.543Z,7.80
2019-02-22T22:18:24.771Z,7.80
2019-02-22T22:24:27.552Z,7.60
2019-02-22T22:27:01.549Z,7.50
2019-02-22T22:29:35.546Z,7.40
2019-02-22T22:32:10.525Z,7.40
2019-02-22T22:34:46.585Z,7.20
2019-02-22T22:37:22.027Z,7.30
2019-02-22T22:39:56.549Z,7.30
2019-02-22T22:42:31.070Z,7.30
2019-02-22T22:45:07.591Z,7.30
2019-02-22T22:47:43.549Z,7.30
2019-02-22T22:50:18.554Z,7.20
2019-02-22T22:52:52.551Z,7.10
2019-02-22T22:55:25.553Z,7.20
2019-02-22T22:58:04.341Z,7.10
2019-02-22T23:00:58.553Z,7.10
2019-02-22T23:03:32.024Z,7.00
2019-02-22T23:06:06.031Z,6.90
2019-02-22T23:08:40.556Z,6.80
2019-02-22T23:11:14.556Z,6.80
2019-02-22T23:13:48.879Z,6.70
2019-02-22T23:16:25.142Z,6.70
2019-02-22T23:19:01.945Z,6.70
2019-02-22T23:21:35.003Z,6.60
2019-02-22T23:24:09.422Z,6.60
2019-02-22T23:26:43.562Z,6.70
2019-02-22T23:29:17.555Z,6.60
2019-02-22T23:31:51.557Z,6.50
2019-02-22T23:34:26.557Z,6.30
2019-02-22T23:37:01.314Z,6.30
2019-02-22T23:39:35.127Z,6.30
2019-02-22T23:42:08.555Z,6.30
2019-02-22T23:44:44.163Z,6.30
2019-02-22T23:47:19.400Z,6.40
2019-02-22T23:49:54.555Z,6.40
2019-02-22T23:52:29.057Z,6.40
2019-02-22T23:55:04.095Z,6.30
2019-02-22T23:57:39.566Z,6.50
